createdAt,value
2018-01-31T01:52:20.983Z,15.27
2018-01-31T01:58:01.278Z,16.63
2018-01-31T02:04:04.796Z,14.50
2018-01-31T02:10:08.268Z,17.20
2018-01-31T02:16:11.735Z,16.80
2018-01-31T02:22:15.195Z,15.17
2018-01-31T02:28:19.650Z,17.80
2018-01-31T02:34:23.505Z,20.00
2018-01-31T02:40:26.973Z,15.60
2018-01-31T02:46:30.447Z,18.50
2018-01-31T02:52:34.674Z,18.30
2018-01-31T02:58:38.204Z,13.83
2018-01-31T03:04:41.839Z,16.63
2018-01-31T03:10:45.301Z,17.30
2018-01-31T03:16:48.813Z,23.33
2018-01-31T03:22:52.271Z,13.60
2018-01-31T03:28:56.505Z,18.07
2018-01-31T03:34:59.965Z,17.50
2018-01-31T03:41:03.437Z,13.80
2018-01-31T03:47:07.757Z,16.63
2018-01-31T03:53:11.230Z,14.50
2018-01-31T03:59:14.847Z,16.57
2018-01-31T04:05:18.379Z,16.33
2018-01-31T04:11:21.885Z,15.00
2018-01-31T04:17:25.590Z,20.80
2018-01-31T04:23:29.152Z,13.23
2018-01-31T04:29:32.626Z,20.73
2018-01-31T04:35:36.863Z,17.10
2018-01-31T04:41:40.444Z,18.00
2018-01-31T04:47:44.139Z,18.37
2018-01-31T04:53:47.785Z,19.70
2018-01-31T04:59:51.661Z,18.30
2018-01-31T05:05:55.160Z,21.30
2018-01-31T05:11:58.617Z,26.37
2018-01-31T05:18:02.885Z,19.57
2018-01-31T05:24:06.369Z,25.60
2018-01-31T05:30:10.663Z,20.93
2018-01-31T05:36:14.272Z,20.43
2018-01-31T05:42:17.921Z,21.20
2018-01-31T05:48:22.274Z,20.93
2018-01-31T05:54:25.963Z,18.67
2018-01-31T06:00:29.576Z,22.73
2018-01-31T06:06:34.074Z,24.50
2018-01-31T06:12:37.646Z,18.83
2018-01-31T06:18:41.236Z,23.00
2018-01-31T06:24:45.783Z,20.80
2018-01-31T06:30:55.781Z,17.63
2018-01-31T06:36:59.367Z,19.00
2018-01-31T06:43:03.600Z,18.60
2018-01-31T06:49:07.081Z,16.00
2018-01-31T06:55:10.546Z,13.53
2018-01-31T07:01:14.924Z,16.67
2018-01-31T07:07:19.302Z,15.17
2018-01-31T07:13:23.855Z,8.67
2018-01-31T07:19:28.104Z,6.47
2018-01-31T07:25:31.654Z,6.70
2018-01-31T07:31:35.110Z,5.97
2018-01-31T07:37:38.646Z,5.67
2018-01-31T07:43:42.438Z,8.17
2018-01-31T07:49:45.916Z,5.03
2018-01-31T07:55:49.903Z,4.10
2018-01-31T08:01:54.370Z,6.73
2018-01-31T08:07:57.837Z,45.10
2018-01-31T08:14:01.314Z,3.73
2018-01-31T08:20:04.881Z,8.10
2018-01-31T08:26:08.363Z,3.03
2018-01-31T08:32:11.829Z,3.00
2018-01-31T08:38:15.299Z,3.07
2018-01-31T08:44:20.169Z,12.03
2018-01-31T08:50:23.737Z,4.37
2018-01-31T08:56:27.952Z,4.90
2018-01-31T09:02:31.564Z,3.83
2018-01-31T09:08:35.010Z,4.37
2018-01-31T09:14:39.225Z,2.73
2018-01-31T09:20:42.684Z,1.90
2018-01-31T09:26:46.133Z,7.30
2018-01-31T09:32:49.684Z,1.83
2018-01-31T09:38:53.461Z,1.50
2018-01-31T09:44:56.920Z,2.03
2018-01-31T09:51:00.413Z,2.37
2018-01-31T09:57:04.650Z,1.60
2018-01-31T10:03:08.106Z,3.27
2018-01-31T10:09:11.569Z,1.40
2018-01-31T10:15:15.035Z,1.10
2018-01-31T10:21:19.440Z,1.37
2018-01-31T10:27:23.452Z,1.20
2018-01-31T10:33:27.126Z,1.10
2018-01-31T10:39:30.573Z,3.33
2018-01-31T10:45:34.186Z,5.07
2018-01-31T10:51:37.672Z,1.17
2018-01-31T10:57:41.245Z,2.80
2018-01-31T11:03:44.916Z,1.20
2018-01-31T11:09:48.417Z,0.80
2018-01-31T11:15:52.581Z,3.77
2018-01-31T11:21:56.050Z,1.13
2018-01-31T11:27:59.510Z,0.80
2018-01-31T11:34:03.026Z,1.03
2018-01-31T11:40:06.486Z,1.57
2018-01-31T11:46:09.973Z,1.27
2018-01-31T11:52:13.445Z,1.43
2018-01-31T11:58:17.208Z,0.97
2018-01-31T12:04:21.578Z,0.73
2018-01-31T12:10:42.900Z,2.63
2018-01-31T12:17:04.372Z,1.30
2018-01-31T12:23:25.611Z,1.53
2018-01-31T12:29:47.692Z,0.90
2018-01-31T12:36:09.160Z,1.00
2018-01-31T12:42:11.770Z,1.63
2018-01-31T12:48:33.209Z,5.33
2018-01-31T12:54:55.318Z,1.47
2018-01-31T13:01:16.555Z,1.40
2018-01-31T13:07:23.815Z,1.43
2018-01-31T13:13:45.847Z,1.50
2018-01-31T13:20:07.227Z,1.13
2018-01-31T13:26:28.694Z,1.30
2018-01-31T13:32:55.687Z,1.10
2018-01-31T13:39:17.111Z,2.53
2018-01-31T13:45:38.413Z,1.50
2018-01-31T13:52:00.532Z,1.43
2018-01-31T13:58:21.722Z,1.27
2018-01-31T14:04:43.194Z,2.03
2018-01-31T14:17:45.885Z,1.03
2018-01-31T14:24:07.158Z,0.90
2018-01-31T14:30:28.608Z,1.03
2018-01-31T14:36:31.293Z,1.77
2018-01-31T14:42:33.931Z,3.13
2018-01-31T14:48:36.591Z,4.00
2018-01-31T14:54:40.137Z,6.63
2018-01-31T15:00:43.617Z,7.03
2018-01-31T15:06:47.157Z,1.70
2018-01-31T15:12:50.869Z,1.30
2018-01-31T15:18:53.926Z,1.10
2018-01-31T15:24:56.657Z,1.13
2018-01-31T15:31:00.032Z,1.23
2018-01-31T15:37:03.935Z,1.60
2018-01-31T15:43:06.666Z,12.67
2018-01-31T15:49:09.990Z,4.27
2018-01-31T15:55:13.897Z,4.90
2018-01-31T16:01:16.884Z,3.67
2018-01-31T16:07:22.381Z,1.53
2018-01-31T16:13:26.005Z,1.37
2018-01-31T16:19:48.871Z,2.60
2018-01-31T16:25:53.551Z,1.40
2018-01-31T16:32:14.964Z,4.00
2018-01-31T16:38:18.551Z,4.07
2018-01-31T16:44:25.328Z,2.13
2018-01-31T16:50:28.897Z,1.50
2018-01-31T16:56:32.440Z,2.20
2018-01-31T17:02:36.326Z,3.20
2018-01-31T17:08:39.991Z,1.90
2018-01-31T17:14:44.440Z,4.50
2018-01-31T17:20:48.475Z,3.97
2018-01-31T17:26:56.276Z,3.10
2018-01-31T17:32:59.950Z,2.07
2018-01-31T17:39:03.724Z,2.37
2018-01-31T17:45:07.378Z,1.80
2018-01-31T17:51:11.331Z,2.13
2018-01-31T17:57:14.869Z,10.43
2018-01-31T18:03:19.215Z,1.33
2018-01-31T18:09:24.632Z,1.87
2018-01-31T18:15:29.108Z,1.43
2018-01-31T18:21:32.851Z,1.10
2018-01-31T18:27:36.391Z,1.43
2018-01-31T18:33:40.736Z,6.63
2018-01-31T18:39:44.285Z,5.50
2018-01-31T18:45:47.997Z,2.50
2018-01-31T18:51:53.445Z,3.10
2018-01-31T18:57:57.799Z,3.40
2018-01-31T19:04:01.501Z,14.60
2018-01-31T19:10:05.881Z,3.20
2018-01-31T19:16:10.194Z,3.73
2018-01-31T19:22:13.768Z,3.07
2018-01-31T19:28:17.380Z,2.33
2018-01-31T19:34:25.084Z,3.57
2018-01-31T19:40:30.232Z,3.10
2018-01-31T19:46:33.873Z,4.73
2018-01-31T19:52:38.525Z,3.57
2018-01-31T19:58:42.104Z,8.43
2018-01-31T20:04:46.421Z,1.40
2018-01-31T20:10:50.092Z,2.13
2018-01-31T20:16:55.614Z,4.30
2018-01-31T20:22:59.775Z,1.93
2018-01-31T20:29:03.413Z,3.40
2018-01-31T20:35:06.942Z,22.00
2018-01-31T20:41:10.662Z,2.53
2018-01-31T20:47:14.245Z,10.33
2018-01-31T20:53:17.825Z,3.37
2018-01-31T20:59:21.497Z,4.53
2018-01-31T21:05:25.473Z,2.00
2018-01-31T21:11:29.053Z,6.20
2018-01-31T21:17:33.395Z,5.37
2018-01-31T21:23:37.085Z,5.13
2018-01-31T21:29:40.654Z,5.50
2018-01-31T21:35:44.333Z,6.67
2018-01-31T21:41:47.883Z,3.77
2018-01-31T21:47:54.472Z,3.17
2018-01-31T21:53:58.102Z,3.67
2018-01-31T22:00:02.214Z,3.93
2018-01-31T22:06:06.091Z,5.20
2018-01-31T22:12:10.725Z,3.53
2018-01-31T22:18:14.364Z,2.60
2018-01-31T22:24:17.916Z,4.13
2018-01-31T22:30:22.977Z,5.30
2018-01-31T22:36:27.370Z,4.30
2018-01-31T22:42:31.187Z,5.93
2018-01-31T22:48:35.516Z,4.13
2018-01-31T22:54:39.210Z,4.57
2018-01-31T23:00:43.087Z,4.50
2018-01-31T23:06:46.616Z,5.57
2018-01-31T23:12:56.286Z,3.17
2018-01-31T23:18:59.863Z,6.07
2018-01-31T23:25:03.504Z,4.03
2018-01-31T23:31:07.058Z,4.07
2018-01-31T23:37:10.703Z,7.53
2018-01-31T23:43:14.426Z,3.70
2018-01-31T23:49:19.577Z,2.83
2018-01-31T23:55:24.372Z,2.97
